Time;durP1;ratioP1;P1;durP2;ratioP2;P2;SDS_P1;SDS_P2;PMS_P1;PMS_P2;Temp;Humidity;BMP_temperature;BMP_pressure;BME280_temperature;BME280_humidity;BME280_pressure;Samples;Min_cycle;Max_cycle;Signal;HPM_P1;HPM_P2
2022/08/24 00:01:20;;;;;;;0.80;0.80;;;;;;;18.22;100.00;97254.47;5036040;28;20029;-84
2022/08/24 00:03:47;;;;;;;0.60;0.20;;;;;;;18.22;100.00;97254.47;5036355;28;20024;-85
2022/08/24 00:06:18;;;;;;;0.45;0.45;;;;;;;18.21;100.00;97269.03;5036345;28;20089;-85
2022/08/24 00:08:45;;;;;;;0.20;0.20;;;;;;;18.30;100.00;97278.97;5052443;28;20124;-84
2022/08/24 00:11:11;;;;;;;0.10;0.10;;;;;;;18.13;100.00;97277.00;5035882;28;20029;-85
2022/08/24 00:13:37;;;;;;;0.93;0.70;;;;;;;18.02;100.00;97269.09;5035749;28;20043;-85
2022/08/24 00:16:07;;;;;;;1.33;0.93;;;;;;;18.04;100.00;97269.78;5036250;28;20029;-85
2022/08/24 00:18:33;;;;;;;0.45;0.43;;;;;;;18.07;100.00;97277.59;5052399;28;20476;-84
2022/08/24 00:21:00;;;;;;;0.60;0.60;;;;;;;18.12;100.00;97292.41;5035814;28;20112;-85
2022/08/24 00:23:26;;;;;;;0.10;0.10;;;;;;;17.99;100.00;97278.38;5035792;28;20024;-84
2022/08/24 00:25:51;;;;;;;0.55;0.52;;;;;;;18.03;100.00;97295.13;5035617;28;20024;-85
2022/08/24 00:28:17;;;;;;;0.30;0.30;;;;;;;18.02;100.00;97296.16;5035860;28;20433;-85
2022/08/24 00:30:43;;;;;;;0.50;0.50;;;;;;;18.08;100.00;97311.81;5035311;28;20120;-84
2022/08/24 00:33:08;;;;;;;2.08;0.80;;;;;;;18.07;100.00;97315.50;5035629;28;20094;-85
2022/08/24 00:35:35;;;;;;;1.92;0.40;;;;;;;18.13;100.00;97342.00;5051989;28;20032;-85
2022/08/24 00:38:00;;;;;;;1.33;0.70;;;;;;;18.12;100.00;97334.88;5035604;28;20112;-85
2022/08/24 00:40:32;;;;;;;0.43;0.40;;;;;;;18.21;100.00;97358.38;5050965;28;20056;-85
2022/08/24 00:43:02;;;;;;;3.72;1.10;;;;;;;18.27;100.00;97371.31;5044922;28;20029;-86
2022/08/24 00:45:28;;;;;;;0.25;0.25;;;;;;;18.22;100.00;97373.59;5051972;28;20033;-85
2022/08/24 00:47:57;;;;;;;0.20;0.20;;;;;;;18.22;100.00;97358.22;5035353;28;20048;-85
2022/08/24 00:50:43;;;;;;;3.95;1.95;;;;;;;18.23;100.00;97359.06;5035123;28;20039;-85
2022/08/24 00:53:23;;;;;;;0.40;0.40;;;;;;;18.20;100.00;97362.94;5029141;28;20025;-85
2022/08/24 00:55:52;;;;;;;0.63;0.28;;;;;;;18.18;100.00;97367.63;5035224;28;20036;-85
2022/08/24 00:58:23;;;;;;;1.13;0.43;;;;;;;18.27;100.00;97374.03;5052030;28;20021;-86
2022/08/24 01:00:56;;;;;;;1.08;0.70;;;;;;;18.25;100.00;97367.88;5035261;28;20029;-85
2022/08/24 01:03:22;;;;;;;0.60;0.52;;;;;;;18.22;100.00;97360.06;5031735;28;20504;-85
2022/08/24 01:05:48;;;;;;;3.10;0.57;;;;;;;18.26;100.00;97358.78;5051627;28;20068;-86
2022/08/24 01:08:14;;;;;;;0.73;0.65;;;;;;;18.24;100.00;97363.50;5034892;28;20056;-85
2022/08/24 01:10:50;;;;;;;2.70;1.13;;;;;;;18.24;100.00;97377.03;5051376;28;20033;-85
2022/08/24 01:13:15;;;;;;;0.82;0.47;;;;;;;18.20;100.00;97375.63;5035017;28;20029;-85
2022/08/24 01:15:45;;;;;;;1.95;0.30;;;;;;;18.18;100.00;97391.16;5034938;28;20036;-85
2022/08/24 01:21:12;;;;;;;1.33;1.13;;;;;;;18.23;100.00;97403.25;5051765;28;20483;-85
2022/08/24 01:23:57;;;;;;;0.50;0.45;;;;;;;18.26;100.00;97388.56;5052392;28;20472;-85
2022/08/24 01:26:27;;;;;;;0.65;0.52;;;;;;;18.31;100.00;97394.38;5051162;28;20024;-85
2022/08/24 01:29:01;;;;;;;0.40;0.35;;;;;;;18.41;100.00;97416.88;5034330;28;20029;-86
2022/08/24 01:31:27;;;;;;;0.77;0.40;;;;;;;18.41;100.00;97406.06;5051176;28;20024;-86
2022/08/24 01:33:53;;;;;;;0.32;0.32;;;;;;;18.43;100.00;97404.03;5034210;28;20020;-86
2022/08/24 01:36:41;;;;;;;1.33;0.47;;;;;;;18.49;100.00;97408.03;5034499;28;20131;-85
2022/08/24 01:39:22;;;;;;;2.60;0.75;;;;;;;18.45;100.00;97423.72;5034182;28;20032;-85
2022/08/24 01:41:48;;;;;;;0.88;0.85;;;;;;;18.46;100.00;97424.59;5051059;28;20483;-86
2022/08/24 01:44:14;;;;;;;0.93;0.85;;;;;;;18.51;100.00;97427.72;5034413;28;20033;-85
2022/08/24 01:46:48;;;;;;;0.40;0.40;;;;;;;18.46;100.00;97427.28;5050936;28;20477;-85
2022/08/24 01:49:14;;;;;;;1.95;0.52;;;;;;;18.38;100.00;97422.59;5033943;28;20498;-85
2022/08/24 01:51:41;;;;;;;0.28;0.28;;;;;;;18.52;100.00;97432.16;5033996;28;20493;-85
2022/08/24 01:54:07;;;;;;;0.43;0.43;;;;;;;18.53;100.00;97423.00;5033955;28;20554;-85
2022/08/24 01:56:33;;;;;;;0.77;0.43;;;;;;;18.57;100.00;97422.59;5034144;28;20025;-85
2022/08/24 01:59:00;;;;;;;0.77;0.73;;;;;;;18.62;100.00;97431.09;5033890;28;20408;-85
2022/08/24 02:01:27;;;;;;;0.82;0.82;;;;;;;18.67;100.00;97436.94;5050668;28;20039;-85
2022/08/24 02:03:53;;;;;;;0.93;0.65;;;;;;;18.62;100.00;97441.94;5033993;28;20028;-86
2022/08/24 02:06:19;;;;;;;0.63;0.63;;;;;;;18.68;100.00;97438.66;5033563;28;20036;-85
2022/08/24 02:08:45;;;;;;;1.65;0.88;;;;;;;18.67;100.00;97428.81;5033630;28;20053;-85
2022/08/24 02:11:11;;;;;;;0.35;0.35;;;;;;;18.67;100.00;97436.09;5033435;28;20491;-85
2022/08/24 02:13:38;;;;;;;1.25;0.65;;;;;;;18.75;100.00;97436.22;5033590;28;20029;-85
2022/08/24 02:16:05;;;;;;;2.95;1.55;;;;;;;18.67;100.00;97420.66;5049929;28;20033;-85
2022/08/24 02:18:32;;;;;;;0.28;0.28;;;;;;;18.71;100.00;97429.38;5050182;28;20056;-84
2022/08/24 02:20:59;;;;;;;0.65;0.65;;;;;;;18.68;100.00;97425.09;5050128;28;20024;-84
2022/08/24 02:23:24;;;;;;;1.52;1.27;;;;;;;18.75;100.00;97436.22;5043600;28;20059;-85
2022/08/24 02:25:50;;;;;;;0.22;0.22;;;;;;;18.75;100.00;97441.63;5033404;28;20053;-85
2022/08/24 02:28:17;;;;;;;2.40;0.75;;;;;;;18.71;100.00;97440.19;5033480;28;20545;-85
2022/08/24 02:30:43;;;;;;;1.20;1.10;;;;;;;18.79;100.00;97443.91;5033342;28;20029;-85
2022/08/24 02:33:08;;;;;;;1.08;0.85;;;;;;;18.76;100.00;97444.19;5033119;28;20029;-85
2022/08/24 02:35:34;;;;;;;0.65;0.40;;;;;;;18.80;100.00;97437.47;5033310;28;20036;-85
2022/08/24 02:38:00;;;;;;;0.65;0.65;;;;;;;18.85;100.00;97448.72;5033322;28;20552;-85
2022/08/24 02:40:25;;;;;;;0.98;0.85;;;;;;;18.82;100.00;97443.59;5049751;28;20029;-85
2022/08/24 02:42:51;;;;;;;1.63;0.70;;;;;;;18.75;100.00;97438.91;5033312;28;20082;-86
2022/08/24 02:45:17;;;;;;;2.33;1.13;;;;;;;18.74;100.00;97451.59;5032883;28;20090;-85
2022/08/24 02:47:44;;;;;;;0.35;0.35;;;;;;;18.78;100.00;97458.44;5033144;28;20025;-85
2022/08/24 02:50:13;;;;;;;2.83;1.10;;;;;;;18.74;100.00;97440.75;5032952;28;20405;-84
2022/08/24 02:52:39;;;;;;;0.70;0.70;;;;;;;18.69;100.00;97428.66;5049878;28;20395;-85
2022/08/24 02:55:16;;;;;;;0.82;0.82;;;;;;;18.72;100.00;97447.34;5032986;28;20389;-85
2022/08/24 02:57:42;;;;;;;5.25;1.35;;;;;;;18.66;100.00;97442.50;5044579;28;20063;-85
2022/08/24 03:00:12;;;;;;;1.17;0.95;;;;;;;18.74;100.00;97465.16;5032591;28;20025;-84
2022/08/24 03:02:38;;;;;;;0.70;0.70;;;;;;;18.72;100.00;97448.19;5032417;28;20035;-85
2022/08/24 03:05:05;;;;;;;0.38;0.38;;;;;;;18.70;100.00;97446.66;5032901;28;20037;-85
2022/08/24 03:07:30;;;;;;;0.77;0.77;;;;;;;18.62;100.00;97444.66;5032646;28;20032;-85
2022/08/24 03:09:56;;;;;;;0.55;0.52;;;;;;;18.58;100.00;97451.38;5032680;28;20136;-85
2022/08/24 03:12:21;;;;;;;2.65;1.23;;;;;;;18.56;100.00;97447.97;5032443;28;20040;-85
2022/08/24 03:14:47;;;;;;;0.68;0.63;;;;;;;18.54;100.00;97458.09;5032712;28;20024;-85
2022/08/24 03:17:12;;;;;;;0.55;0.50;;;;;;;18.61;100.00;97456.50;5032607;28;20452;-84
2022/08/24 03:19:39;;;;;;;0.80;0.68;;;;;;;18.57;100.00;97451.53;5032830;28;20056;-85
2022/08/24 03:22:04;;;;;;;1.58;0.40;;;;;;;18.44;100.00;97451.81;5032776;28;20044;-85
2022/08/24 03:24:30;;;;;;;0.20;0.20;;;;;;;18.27;100.00;97445.28;5032602;28;20029;-84
2022/08/24 03:26:56;;;;;;;1.45;0.73;;;;;;;18.28;100.00;97462.38;5033103;28;20051;-85
2022/08/24 03:29:21;;;;;;;1.27;0.73;;;;;;;18.33;100.00;97465.53;5032281;28;20033;-84
2022/08/24 03:31:47;;;;;;;1.13;0.50;;;;;;;18.29;100.00;97458.69;5032702;28;20117;-85
2022/08/24 03:34:13;;;;;;;4.57;1.00;;;;;;;18.37;100.00;97475.03;5049404;28;20084;-85
2022/08/24 03:36:45;;;;;;;0.30;0.30;;;;;;;18.31;100.00;97464.78;5049096;28;20090;-85
2022/08/24 03:39:12;;;;;;;1.55;1.13;;;;;;;18.32;100.00;97474.63;5049498;28;20043;-81
2022/08/24 03:41:37;;;;;;;2.70;0.90;;;;;;;18.33;100.00;97468.22;5032910;28;20034;-87
2022/08/24 03:44:04;;;;;;;1.08;0.80;;;;;;;18.33;100.00;97470.94;5049643;28;20032;-88
2022/08/24 03:46:39;;;;;;;1.35;0.38;;;;;;;18.21;100.00;97436.91;5032648;28;20492;-89
2022/08/24 03:49:33;;;;;;;1.15;1.00;;;;;;;18.21;100.00;97458.56;5033482;28;20028;-90
2022/08/24 03:52:06;;;;;;;0.73;0.40;;;;;;;17.94;100.00;97432.19;5022921;28;20463;-91
2022/08/24 03:54:31;;;;;;;0.75;0.47;;;;;;;17.88;100.00;97430.94;5033613;28;20396;-90
2022/08/24 03:56:57;;;;;;;0.47;0.47;;;;;;;18.10;100.00;97464.97;5032993;28;20032;-86
2022/08/24 03:59:24;;;;;;;9.32;1.13;;;;;;;18.06;100.00;97459.97;5049458;28;20060;-86
2022/08/24 04:01:50;;;;;;;2.08;1.23;;;;;;;18.25;100.00;97481.63;5049122;28;20479;-87
2022/08/24 04:04:16;;;;;;;0.73;0.60;;;;;;;18.32;100.00;97486.34;5032577;28;20099;-85
2022/08/24 04:06:43;;;;;;;4.47;1.10;;;;;;;18.37;100.00;97481.31;5032219;28;20060;-86
2022/08/24 04:09:09;;;;;;;1.42;1.05;;;;;;;18.38;100.00;97484.91;5032206;28;20080;-86
2022/08/24 04:11:34;;;;;;;2.30;0.82;;;;;;;18.48;100.00;97488.44;5048697;28;20033;-86
2022/08/24 04:14:00;;;;;;;0.70;0.70;;;;;;;18.53;100.00;97485.31;5033474;28;20087;-86
2022/08/24 04:16:28;;;;;;;2.78;1.38;;;;;;;18.58;100.00;97483.03;5053415;28;20389;-85
2022/08/24 04:18:56;;;;;;;1.88;1.15;;;;;;;18.56;100.00;97485.03;5035926;28;20068;-85
2022/08/24 04:21:33;;;;;;;1.00;0.85;;;;;;;18.73;100.00;97492.41;5035730;28;20481;-85
2022/08/24 04:23:59;;;;;;;1.08;0.68;;;;;;;18.79;100.00;97489.13;5036290;28;20032;-85
2022/08/24 04:26:27;;;;;;;0.73;0.73;;;;;;;18.83;100.00;97483.25;5036191;28;20025;-86
2022/08/24 04:28:53;;;;;;;1.33;0.90;;;;;;;18.90;100.00;97489.78;5035882;28;20044;-84
2022/08/24 04:31:19;;;;;;;0.98;0.95;;;;;;;18.94;100.00;97472.22;5035855;28;20121;-85
2022/08/24 04:33:46;;;;;;;2.70;1.00;;;;;;;19.02;100.00;97481.47;5036170;28;20033;-85
2022/08/24 04:36:12;;;;;;;3.75;0.95;;;;;;;19.03;100.00;97488.59;5052537;28;20488;-85
2022/08/24 04:38:38;;;;;;;2.15;0.98;;;;;;;18.93;100.00;97467.81;5052192;28;20025;-84
2022/08/24 04:41:06;;;;;;;0.47;0.47;;;;;;;19.08;100.00;97480.88;5052148;28;20075;-84
2022/08/24 04:43:32;;;;;;;2.40;1.00;;;;;;;19.12;100.00;97472.28;5035309;28;20064;-84
2022/08/24 04:45:59;;;;;;;1.17;1.08;;;;;;;19.14;100.00;97470.28;5035107;28;20064;-85
2022/08/24 04:48:25;;;;;;;0.63;0.60;;;;;;;19.29;100.00;97476.06;5051972;28;20446;-85
2022/08/24 04:50:50;;;;;;;17.88;1.35;;;;;;;19.37;100.00;97482.47;5035099;28;20029;-84
2022/08/24 04:53:16;;;;;;;1.30;1.13;;;;;;;19.40;100.00;97474.03;5035777;28;20028;-85
2022/08/24 04:55:47;;;;;;;0.82;0.82;;;;;;;19.56;100.00;97467.94;5052551;28;20044;-84
2022/08/24 04:58:19;;;;;;;6.47;1.20;;;;;;;19.54;100.00;97445.53;5035354;28;20029;-84
2022/08/24 05:01:18;;;;;;;3.13;1.83;;;;;;;19.65;100.00;97433.59;5032685;28;20086;-87
2022/08/24 05:03:45;;;;;;;0.95;0.95;;;;;;;19.72;100.00;97405.69;5031981;28;20060;-83
2022/08/24 05:06:13;;;;;;;0.88;0.88;;;;;;;20.08;100.00;97454.56;5051459;28;20032;-83
2022/08/24 05:08:39;;;;;;;1.13;1.05;;;;;;;20.19;100.00;97460.59;5035013;28;20124;-83
2022/08/24 05:11:07;;;;;;;3.50;1.17;;;;;;;20.38;100.00;97451.44;5051086;28;20120;-80
2022/08/24 05:13:37;;;;;;;0.63;0.63;;;;;;;20.65;100.00;97447.72;5051401;28;20031;-81
2022/08/24 05:16:14;;;;;;;1.95;0.82;;;;;;;20.72;100.00;97443.34;5033379;28;20029;-80
2022/08/24 05:18:40;;;;;;;0.80;0.80;;;;;;;21.02;100.00;97440.97;5051322;28;20025;-80
2022/08/24 05:21:07;;;;;;;1.08;0.98;;;;;;;21.18;100.00;97442.09;5050985;28;20404;-80
2022/08/24 05:23:34;;;;;;;3.97;0.73;;;;;;;21.25;100.00;97440.44;5034464;28;20025;-81
2022/08/24 05:26:11;;;;;;;1.15;0.65;;;;;;;21.49;100.00;97433.22;5050267;28;20334;-80
2022/08/24 05:28:40;;;;;;;10.57;2.28;;;;;;;21.66;100.00;97428.63;5051255;28;20163;-81
2022/08/24 05:31:21;;;;;;;2.35;1.30;;;;;;;21.67;100.00;97414.03;5034143;28;20048;-80
2022/08/24 05:33:47;;;;;;;5.55;3.25;;;;;;;21.78;100.00;97413.69;5050947;28;20132;-81
2022/08/24 05:36:22;;;;;;;3.40;1.95;;;;;;;22.08;100.00;97413.09;5034086;28;20028;-81
2022/08/24 05:38:49;;;;;;;0.77;0.77;;;;;;;22.58;100.00;97406.56;5050873;28;20480;-80
2022/08/24 05:41:15;;;;;;;2.28;0.63;;;;;;;22.92;100.00;97399.00;5033810;28;20433;-79
2022/08/24 05:43:41;;;;;;;1.05;0.63;;;;;;;23.41;100.00;97398.84;5034015;28;20024;-81
2022/08/24 05:46:07;;;;;;;0.40;0.40;;;;;;;23.19;100.00;97395.81;5033876;28;20488;-80
2022/08/24 05:48:36;;;;;;;5.85;1.05;;;;;;;23.32;100.00;97400.72;5033966;28;20404;-80
2022/08/24 05:51:03;;;;;;;0.95;0.90;;;;;;;23.18;100.00;97396.03;5034223;28;20037;-81
2022/08/24 05:53:29;;;;;;;1.08;0.60;;;;;;;23.18;100.00;97388.69;5050471;28;20051;-81
2022/08/24 05:55:54;;;;;;;0.68;0.38;;;;;;;23.16;100.00;97382.53;5033756;28;20060;-80
2022/08/24 05:58:20;;;;;;;0.40;0.40;;;;;;;23.27;100.00;97394.94;5033495;28;20508;-81
2022/08/24 06:00:46;;;;;;;0.85;0.70;;;;;;;24.27;100.00;97394.84;5050373;28;20029;-80
2022/08/24 06:03:13;;;;;;;1.50;1.40;;;;;;;25.04;94.98;97400.94;5049919;28;20546;-80
2022/08/24 06:05:42;;;;;;;4.68;0.75;;;;;;;26.22;87.70;97394.19;5033617;28;20349;-80
2022/08/24 06:08:08;;;;;;;0.55;0.55;;;;;;;27.08;83.28;97392.13;5033251;28;20120;-81
2022/08/24 06:10:48;;;;;;;2.78;2.25;;;;;;;27.68;76.70;97399.66;5033457;28;20112;-83
2022/08/24 06:13:15;;;;;;;1.90;1.23;;;;;;;28.36;73.56;97385.63;5050561;28;20094;-80
2022/08/24 06:15:42;;;;;;;2.90;1.23;;;;;;;29.27;68.51;97374.81;5050073;28;20044;-81
2022/08/24 06:18:08;;;;;;;1.70;1.20;;;;;;;28.66;68.82;97380.63;5050030;28;20036;-80
2022/08/24 06:20:38;;;;;;;1.63;1.52;;;;;;;27.77;74.66;97384.66;5033273;28;20032;-81
2022/08/24 06:23:04;;;;;;;1.35;1.25;;;;;;;26.76;76.81;97374.38;5050000;28;20066;-81
2022/08/24 06:28:14;;;;;;;1.73;1.48;;;;;;;25.64;83.88;97372.44;5050290;28;20047;-81
2022/08/24 06:30:41;;;;;;;1.52;0.95;;;;;;;25.25;87.33;97375.53;5033034;28;20481;-81
2022/08/24 06:33:08;;;;;;;0.60;0.60;;;;;;;24.97;91.44;97375.38;5033363;28;20119;-80
2022/08/24 06:35:34;;;;;;;0.82;0.82;;;;;;;24.61;93.42;97363.44;5033005;28;20182;-80
2022/08/24 06:37:59;;;;;;;0.45;0.45;;;;;;;24.50;97.62;97377.56;5032226;28;20037;-80
2022/08/24 06:40:25;;;;;;;0.32;0.32;;;;;;;24.28;97.64;97374.69;5049513;28;20100;-81
2022/08/24 06:42:51;;;;;;;1.17;0.75;;;;;;;23.94;99.97;97376.97;5049706;28;20033;-81
2022/08/24 06:45:17;;;;;;;1.17;0.95;;;;;;;23.86;99.79;97378.94;5049457;28;20555;-81
2022/08/24 06:47:43;;;;;;;0.43;0.43;;;;;;;23.91;98.27;97371.88;5032882;28;20025;-81
2022/08/24 06:50:08;;;;;;;1.13;0.95;;;;;;;24.19;97.98;97373.06;5032950;28;20036;-81
2022/08/24 06:52:35;;;;;;;1.02;0.60;;;;;;;24.26;95.65;97375.91;5032775;28;20029;-81
2022/08/24 06:55:01;;;;;;;0.68;0.68;;;;;;;25.04;94.00;97375.47;5049371;28;20021;-81
2022/08/24 06:57:26;;;;;;;0.45;0.45;;;;;;;25.54;90.96;97377.38;5032717;28;20028;-81
2022/08/24 06:59:53;;;;;;;0.60;0.60;;;;;;;26.25;86.18;97376.47;5049192;28;20017;-81
2022/08/24 07:02:18;;;;;;;13.82;1.20;;;;;;;26.42;85.81;97385.28;5049345;28;20049;-81
2022/08/24 07:04:45;;;;;;;1.65;1.00;;;;;;;26.21;85.61;97378.78;5032467;28;20118;-81
2022/08/24 07:07:11;;;;;;;1.38;0.68;;;;;;;25.97;86.37;97378.28;5032689;28;20078;-82
2022/08/24 07:09:37;;;;;;;2.08;1.05;;;;;;;26.17;84.05;97377.47;5049068;28;20039;-81
2022/08/24 07:12:03;;;;;;;0.60;0.60;;;;;;;25.75;84.78;97385.63;5032405;28;20021;-81
2022/08/24 07:14:29;;;;;;;0.35;0.35;;;;;;;25.61;86.51;97390.13;5049112;28;20021;-81
2022/08/24 07:16:55;;;;;;;0.52;0.52;;;;;;;25.73;84.64;97379.50;5032539;28;20083;-81
2022/08/24 07:19:21;;;;;;;0.20;0.20;;;;;;;26.50;81.17;97386.00;5032497;28;20021;-81
2022/08/24 07:21:46;;;;;;;1.15;0.55;;;;;;;27.17;79.57;97380.78;5032345;28;20112;-81
2022/08/24 07:24:12;;;;;;;0.65;0.65;;;;;;;27.36;78.43;97388.28;5032757;28;20469;-82
2022/08/24 07:26:38;;;;;;;1.50;0.93;;;;;;;27.61;76.79;97385.88;5032280;28;20064;-82
2022/08/24 07:29:09;;;;;;;1.30;0.63;;;;;;;28.57;73.10;97384.63;5032322;28;20020;-82
2022/08/24 07:31:37;;;;;;;0.77;0.50;;;;;;;29.40;66.41;97383.03;5032458;28;20401;-81
2022/08/24 07:34:05;;;;;;;1.08;0.93;;;;;;;29.84;63.90;97379.50;5043959;28;20029;-81
2022/08/24 07:36:30;;;;;;;0.22;0.22;;;;;;;30.13;61.68;97375.28;5049092;28;20021;-82
2022/08/24 07:38:56;;;;;;;0.43;0.43;;;;;;;30.68;60.75;97376.34;5032199;28;20768;-82
2022/08/24 07:41:24;;;;;;;0.90;0.75;;;;;;;30.53;60.30;97385.84;5048972;28;20024;-82
2022/08/24 07:43:51;;;;;;;0.10;0.10;;;;;;;29.02;64.05;97380.13;5032269;28;20468;-81
2022/08/24 07:46:16;;;;;;;0.30;0.30;;;;;;;30.17;61.02;97369.09;5049330;28;20021;-81
2022/08/24 07:48:42;;;;;;;0.75;0.75;;;;;;;30.47;60.50;97369.31;5032483;28;20040;-82
2022/08/24 07:51:09;;;;;;;0.60;0.60;;;;;;;30.37;59.78;97377.22;5036117;28;20108;-82
2022/08/24 07:53:35;;;;;;;0.70;0.52;;;;;;;29.74;61.74;97362.53;5036109;28;20032;-83
2022/08/24 07:56:01;;;;;;;0.95;0.63;;;;;;;30.70;59.49;97363.19;5052623;28;20024;-83
2022/08/24 07:58:27;;;;;;;0.10;0.10;;;;;;;30.59;59.65;97373.91;5035932;28;20032;-81
2022/08/24 08:00:52;;;;;;;0.93;0.85;;;;;;;30.59;59.04;97362.84;5035927;28;20032;-81
2022/08/24 08:03:18;;;;;;;0.43;0.17;;;;;;;30.60;59.47;97372.84;5036249;28;20082;-81
2022/08/24 08:05:44;;;;;;;0.57;0.47;;;;;;;31.17;57.57;97362.50;5034395;28;20421;-84
2022/08/24 08:08:10;;;;;;;3.08;0.57;;;;;;;32.33;54.81;97359.56;5033733;28;20480;-84
2022/08/24 08:10:37;;;;;;;0.52;0.47;;;;;;;32.77;53.84;97372.06;5033497;28;20032;-83
2022/08/24 08:13:03;;;;;;;0.28;0.28;;;;;;;33.18;52.49;97352.56;5050655;28;20190;-82
2022/08/24 08:15:28;;;;;;;0.60;0.60;;;;;;;31.60;55.94;97377.16;5033095;28;20425;-83
2022/08/24 08:17:54;;;;;;;0.30;0.30;;;;;;;31.09;55.58;97371.97;5033385;28;20109;-83
2022/08/24 08:20:20;;;;;;;2.47;1.17;;;;;;;31.41;55.26;97361.59;5034010;28;20481;-84
2022/08/24 08:25:30;;;;;;;0.30;0.28;;;;;;;30.71;56.75;97365.72;5049939;28;20109;-80
2022/08/24 08:27:56;;;;;;;0.80;0.75;;;;;;;31.06;57.33;97368.81;5033220;28;20116;-82
2022/08/24 08:30:22;;;;;;;0.20;0.20;;;;;;;32.37;52.29;97356.06;5032814;28;20044;-83
2022/08/24 08:32:47;;;;;;;0.68;0.65;;;;;;;33.41;50.46;97341.44;5032807;28;20071;-82
2022/08/24 08:35:13;;;;;;;0.30;0.30;;;;;;;32.67;51.09;97356.84;5032364;28;20067;-83
2022/08/24 08:37:39;;;;;;;0.70;0.60;;;;;;;32.02;51.63;97344.03;5049132;28;20029;-82
2022/08/24 08:40:16;;;;;;;2.33;1.33;;;;;;;32.30;52.84;97362.81;5049035;28;20263;-83
2022/08/24 08:42:52;;;;;;;7.05;1.52;;;;;;;32.09;54.72;97372.47;5032396;28;20025;-82
2022/08/24 08:45:28;;;;;;;1.50;1.15;;;;;;;31.63;55.16;97375.81;5032517;28;20086;-82
2022/08/24 08:48:12;;;;;;;1.33;1.15;;;;;;;30.80;57.59;97371.78;5049640;28;20037;-82
2022/08/24 08:51:05;;;;;;;2.42;0.90;;;;;;;31.35;55.14;97370.81;5048555;28;20396;-82
2022/08/24 08:54:01;;;;;;;0.10;0.10;;;;;;;33.01;50.62;97357.97;5050114;28;20597;-82
2022/08/24 08:56:42;;;;;;;2.30;0.80;;;;;;;33.31;49.16;97352.31;5050216;28;20037;-82
2022/08/24 08:59:36;;;;;;;0.40;0.40;;;;;;;32.77;50.27;97355.41;5049038;28;20119;-83
2022/08/24 09:02:23;;;;;;;1.58;0.65;;;;;;;33.09;49.15;97356.81;5048077;28;20399;-83
2022/08/24 09:05:14;;;;;;;0.70;0.55;;;;;;;31.65;53.28;97376.47;5048745;28;20036;-83
2022/08/24 09:08:11;;;;;;;0.82;0.82;;;;;;;31.90;52.31;97379.94;5048890;28;20493;-83
2022/08/24 09:11:13;;;;;;;6.63;4.28;;;;;;;30.77;55.32;97386.91;5048823;28;20384;-81
2022/08/24 09:13:47;;;;;;;7.82;4.55;;;;;;;29.88;59.12;97386.25;5047681;28;20032;-82
2022/08/24 09:16:42;;;;;;;6.53;4.63;;;;;;;29.68;58.82;97386.31;5028806;28;20033;-82
2022/08/24 09:19:41;;;;;;;8.45;4.47;;;;;;;29.50;59.50;97383.44;5044478;28;20510;-83
2022/08/24 09:22:14;;;;;;;5.63;3.65;;;;;;;29.96;58.01;97384.06;5048364;28;20119;-82
2022/08/24 09:24:42;;;;;;;7.80;4.38;;;;;;;30.14;58.73;97397.16;5048654;28;20108;-83
2022/08/24 09:27:14;;;;;;;14.10;6.55;;;;;;;30.33;58.27;97392.56;5048479;28;20037;-82
2022/08/24 09:29:44;;;;;;;;;;;;;;;29.27;59.62;97388.59;5048641;28;20136;-82
2022/08/24 09:32:10;;;;;;;10.43;5.63;;;;;;;29.23;61.10;97390.88;5048804;28;19925;-82
2022/08/24 09:35:14;;;;;;;9.80;6.88;;;;;;;29.18;61.83;97390.72;5048306;28;20412;-83
2022/08/24 09:38:04;;;;;;;8.32;5.68;;;;;;;29.13;63.27;97393.28;5039066;28;20156;-82
2022/08/24 09:40:38;;;;;;;10.27;4.95;;;;;;;29.01;64.51;97400.47;5046029;28;20035;-81
2022/08/24 09:43:04;;;;;;;8.48;5.13;;;;;;;28.36;66.36;97396.66;5048448;28;20507;-83
2022/08/24 09:45:39;;;;;;;8.63;4.88;;;;;;;27.89;67.67;97391.25;5047950;28;20033;-83
2022/08/24 09:48:35;;;;;;;6.35;4.93;;;;;;;27.53;70.01;97397.06;5031175;28;20044;-83
2022/08/24 09:51:06;;;;;;;6.47;4.78;;;;;;;26.98;73.40;97397.97;5047622;28;20035;-83
2022/08/24 09:54:09;;;;;;;11.52;4.90;;;;;;;26.79;75.31;97388.53;5047875;28;20029;-83
2022/08/24 09:57:14;;;;;;;11.02;4.75;;;;;;;26.52;74.10;97383.06;5047698;28;20041;-83
2022/08/24 10:00:10;;;;;;;8.38;4.50;;;;;;;26.51;74.58;97384.09;5041407;28;20408;-84
2022/08/24 10:02:58;;;;;;;8.10;5.18;;;;;;;26.37;75.03;97383.97;5047610;28;20492;-82
2022/08/24 10:05:33;;;;;;;5.82;4.70;;;;;;;26.83;76.02;97383.50;5048921;28;20103;-82
2022/08/24 10:08:40;;;;;;;8.98;4.55;;;;;;;27.09;75.07;97380.97;5048723;28;20031;-82
2022/08/24 10:11:26;;;;;;;2.85;1.63;;;;;;;27.09;77.39;97385.59;5030882;28;20048;-81
2022/08/24 10:14:07;;;;;;;16.17;0.82;;;;;;;26.56;76.65;97373.38;5047267;28;20029;-80
2022/08/24 10:16:59;;;;;;;2.35;1.80;;;;;;;26.40;77.86;97380.00;5047440;28;20036;-81
2022/08/24 10:19:33;;;;;;;0.88;0.70;;;;;;;26.55;76.36;97385.41;5047891;28;20480;-81
2022/08/24 10:22:44;;;;;;;1.80;1.33;;;;;;;26.81;72.19;97371.91;5047509;28;20036;-81
2022/08/24 10:25:29;;;;;;;0.30;0.30;;;;;;;27.12;71.31;97363.22;5020761;28;20056;-82
2022/08/24 10:28:32;;;;;;;0.73;0.68;;;;;;;27.31;70.92;97359.72;5047235;28;20120;-82
2022/08/24 10:31:10;;;;;;;2.05;1.00;;;;;;;27.56;70.08;97362.81;5048025;28;20033;-81
2022/08/24 10:33:51;;;;;;;5.50;1.77;;;;;;;27.54;70.48;97365.75;5044453;28;20054;-81
2022/08/24 10:36:28;;;;;;;0.47;0.47;;;;;;;27.65;69.97;97362.44;5048394;28;20103;-82
2022/08/24 10:45:26;;;;;;;0.43;0.40;;;;;;;28.40;67.68;97364.91;5046994;28;20266;-80
2022/08/24 10:48:10;;;;;;;1.13;0.55;;;;;;;28.31;67.06;97349.66;5048273;28;20024;-81
2022/08/24 10:50:57;;;;;;;0.65;0.50;;;;;;;28.32;67.36;97351.38;5048199;28;20035;-82
2022/08/24 10:53:24;;;;;;;0.50;0.50;;;;;;;28.27;65.65;97348.38;5046719;28;20116;-82
2022/08/24 10:56:12;;;;;;;1.60;0.85;;;;;;;27.77;67.82;97346.19;5046605;28;20071;-82
2022/08/24 10:58:43;;;;;;;0.70;0.70;;;;;;;27.56;68.90;97338.94;5046887;28;20463;-82
2022/08/24 11:01:22;;;;;;;1.08;0.57;;;;;;;27.15;70.25;97349.06;5047018;28;20785;-82
2022/08/24 11:03:53;;;;;;;5.68;1.10;;;;;;;27.18;71.15;97349.53;5030098;28;20037;-82
2022/08/24 11:06:20;;;;;;;0.47;0.47;;;;;;;26.97;72.06;97368.00;5046753;28;20036;-82
2022/08/24 11:09:09;;;;;;;1.05;0.95;;;;;;;26.85;73.10;97370.47;5029655;28;20064;-82
2022/08/24 11:11:41;;;;;;;1.25;0.98;;;;;;;26.50;75.58;97363.19;5047852;28;20028;-82
2022/08/24 11:14:23;;;;;;;1.40;1.00;;;;;;;26.15;76.37;97363.09;5046362;28;20032;-82
2022/08/24 11:16:49;;;;;;;;;;;;;;;26.20;77.30;97362.53;5047240;28;20110;-82
2022/08/24 11:19:30;;;;;;;6.38;0.80;;;;;;;26.56;76.22;97356.91;5029930;28;20356;-82
2022/08/24 11:22:00;;;;;;;2.72;0.40;;;;;;;26.94;75.67;97352.78;5030021;28;20409;-82
2022/08/24 11:24:38;;;;;;;0.93;0.75;;;;;;;27.26;73.78;97352.09;5029677;28;20032;-82
2022/08/24 11:27:16;;;;;;;0.63;0.47;;;;;;;27.31;73.37;97343.25;5029919;28;20039;-82
2022/08/24 11:29:51;;;;;;;0.85;0.47;;;;;;;27.47;73.58;97361.31;5046394;28;20037;-82
2022/08/24 11:32:31;;;;;;;1.25;0.82;;;;;;;27.51;72.46;97357.06;5046280;28;20033;-83
2022/08/24 11:35:04;;;;;;;2.10;0.43;;;;;;;27.36;73.75;97349.81;5046168;28;20044;-82
2022/08/24 11:37:33;;;;;;;0.25;0.25;;;;;;;27.32;73.33;97348.50;5029809;28;20033;-82
2022/08/24 11:39:59;;;;;;;1.95;0.95;;;;;;;26.97;75.23;97349.63;5029783;28;20029;-82
2022/08/24 11:42:43;;;;;;;0.85;0.50;;;;;;;26.99;75.62;97355.75;5029646;28;20021;-82
2022/08/24 11:45:15;;;;;;;1.30;1.00;;;;;;;26.83;76.56;97348.69;5046325;28;20143;-82
2022/08/24 11:47:58;;;;;;;1.83;1.10;;;;;;;26.71;77.94;97339.28;5046585;28;20024;-82
2022/08/24 11:50:33;;;;;;;1.00;0.85;;;;;;;26.80;77.57;97342.75;5027497;28;20620;-82
2022/08/24 11:53:08;;;;;;;0.85;0.85;;;;;;;26.69;78.45;97346.03;5046203;28;20033;-82
2022/08/24 11:55:58;;;;;;;0.80;0.80;;;;;;;26.61;78.74;97335.22;5045971;28;20035;-84
2022/08/24 11:58:54;;;;;;;0.15;0.15;;;;;;;26.61;78.23;97327.81;5047555;28;20485;-82
2022/08/24 12:01:22;;;;;;;1.15;0.80;;;;;;;26.69;79.00;97343.28;5045229;28;20029;-82
2022/08/24 12:03:59;;;;;;;1.13;0.75;;;;;;;26.50;80.34;97325.63;5046225;28;20036;-82